sensor_id;sensor_type;location;lat;lon;timestamp;temperature;humidity
63802;DHT22;49949;43.060;25.624;2023-04-07T00:00:41;6.30;99.00
63802;DHT22;49949;43.060;25.624;2023-04-07T00:03:06;6.30;97.60
63802;DHT22;49949;43.060;25.624;2023-04-07T00:05:33;6.30;96.00
63802;DHT22;49949;43.060;25.624;2023-04-07T00:07:58;6.30;95.80
63802;DHT22;49949;43.060;25.624;2023-04-07T00:10:25;6.30;97.60
63802;DHT22;49949;43.060;25.624;2023-04-07T00:12:51;6.40;95.70
63802;DHT22;49949;43.060;25.624;2023-04-07T00:15:17;6.40;96.20
63802;DHT22;49949;43.060;25.624;2023-04-07T00:17:42;6.40;96.50
63802;DHT22;49949;43.060;25.624;2023-04-07T00:20:08;6.40;97.40
63802;DHT22;49949;43.060;25.624;2023-04-07T00:22:34;6.40;96.50
63802;DHT22;49949;43.060;25.624;2023-04-07T00:24:59;6.40;95.40
63802;DHT22;49949;43.060;25.624;2023-04-07T00:27:25;6.40;95.10
63802;DHT22;49949;43.060;25.624;2023-04-07T00:29:51;6.40;97.80
63802;DHT22;49949;43.060;25.624;2023-04-07T00:32:20;6.40;97.40
63802;DHT22;49949;43.060;25.624;2023-04-07T00:34:46;6.40;97.90
63802;DHT22;49949;43.060;25.624;2023-04-07T00:37:12;6.40;97.40
63802;DHT22;49949;43.060;25.624;2023-04-07T00:39:37;6.40;97.70
63802;DHT22;49949;43.060;25.624;2023-04-07T00:42:03;6.40;96.50
63802;DHT22;49949;43.060;25.624;2023-04-07T00:44:31;6.40;95.30
63802;DHT22;49949;43.060;25.624;2023-04-07T00:46:57;6.40;97.00
63802;DHT22;49949;43.060;25.624;2023-04-07T00:49:23;6.40;96.30
63802;DHT22;49949;43.060;25.624;2023-04-07T00:51:49;6.30;95.10
63802;DHT22;49949;43.060;25.624;2023-04-07T00:54:17;6.30;96.70
63802;DHT22;49949;43.060;25.624;2023-04-07T00:56:43;6.30;98.10
63802;DHT22;49949;43.060;25.624;2023-04-07T00:59:08;6.30;97.90
63802;DHT22;49949;43.060;25.624;2023-04-07T01:02:02;6.30;97.60
63802;DHT22;49949;43.060;25.624;2023-04-07T01:04:44;6.30;98.00
63802;DHT22;49949;43.060;25.624;2023-04-07T01:07:43;6.20;97.00
63802;DHT22;49949;43.060;25.624;2023-04-07T01:10:16;6.30;96.70
63802;DHT22;49949;43.060;25.624;2023-04-07T01:12:58;6.20;97.30
63802;DHT22;49949;43.060;25.624;2023-04-07T01:15:26;6.20;97.70
63802;DHT22;49949;43.060;25.624;2023-04-07T01:18:00;6.10;98.80
63802;DHT22;49949;43.060;25.624;2023-04-07T01:20:31;6.00;98.60
63802;DHT22;49949;43.060;25.624;2023-04-07T01:23:02;6.00;99.90
63802;DHT22;49949;43.060;25.624;2023-04-07T01:25:52;6.00;99.90
63802;DHT22;49949;43.060;25.624;2023-04-07T01:31:19;5.90;99.90
63802;DHT22;49949;43.060;25.624;2023-04-07T01:33:46;5.90;98.70
63802;DHT22;49949;43.060;25.624;2023-04-07T01:36:13;5.90;99.90
63802;DHT22;49949;43.060;25.624;2023-04-07T01:38:41;5.80;99.90
63802;DHT22;49949;43.060;25.624;2023-04-07T01:41:09;5.80;99.90
63802;DHT22;49949;43.060;25.624;2023-04-07T01:43:36;5.80;99.90
63802;DHT22;49949;43.060;25.624;2023-04-07T01:46:03;5.70;99.90
63802;DHT22;49949;43.060;25.624;2023-04-07T01:48:30;5.70;99.90
63802;DHT22;49949;43.060;25.624;2023-04-07T01:50:57;5.60;99.90
63802;DHT22;49949;43.060;25.624;2023-04-07T01:53:23;5.60;99.90
63802;DHT22;49949;43.060;25.624;2023-04-07T01:55:51;5.40;99.90
63802;DHT22;49949;43.060;25.624;2023-04-07T01:58:18;5.30;99.90
63802;DHT22;49949;43.060;25.624;2023-04-07T02:00:43;5.30;99.90
63802;DHT22;49949;43.060;25.624;2023-04-07T02:03:17;5.20;99.90
63802;DHT22;49949;43.060;25.624;2023-04-07T02:05:49;5.20;99.90
63802;DHT22;49949;43.060;25.624;2023-04-07T02:08:17;5.10;99.90
63802;DHT22;49949;43.060;25.624;2023-04-07T02:10:47;5.10;99.90
63802;DHT22;49949;43.060;25.624;2023-04-07T02:13:18;5.10;99.90
63802;DHT22;49949;43.060;25.624;2023-04-07T02:15:45;5.00;99.90
63802;DHT22;49949;43.060;25.624;2023-04-07T02:18:12;5.00;99.90
63802;DHT22;49949;43.060;25.624;2023-04-07T02:20:40;4.90;99.90
63802;DHT22;49949;43.060;25.624;2023-04-07T02:23:07;4.90;99.90
63802;DHT22;49949;43.060;25.624;2023-04-07T02:25:33;4.90;99.90
63802;DHT22;49949;43.060;25.624;2023-04-07T02:27:59;4.80;99.90
63802;DHT22;49949;43.060;25.624;2023-04-07T02:30:26;4.80;99.90
63802;DHT22;49949;43.060;25.624;2023-04-07T02:32:52;4.70;99.90
63802;DHT22;49949;43.060;25.624;2023-04-07T02:35:18;4.70;99.90
63802;DHT22;49949;43.060;25.624;2023-04-07T02:37:44;4.70;99.90
63802;DHT22;49949;43.060;25.624;2023-04-07T02:40:10;4.60;99.90
63802;DHT22;49949;43.060;25.624;2023-04-07T02:42:36;4.60;99.90
63802;DHT22;49949;43.060;25.624;2023-04-07T02:45:07;4.60;99.90
63802;DHT22;49949;43.060;25.624;2023-04-07T02:47:35;4.50;99.90
63802;DHT22;49949;43.060;25.624;2023-04-07T02:50:01;4.50;99.90
63802;DHT22;49949;43.060;25.624;2023-04-07T02:52:26;4.40;99.90
63802;DHT22;49949;43.060;25.624;2023-04-07T02:54:52;4.50;99.90
63802;DHT22;49949;43.060;25.624;2023-04-07T02:57:18;4.50;99.90
63802;DHT22;49949;43.060;25.624;2023-04-07T02:59:45;4.40;99.90
63802;DHT22;49949;43.060;25.624;2023-04-07T03:02:11;4.40;99.90
63802;DHT22;49949;43.060;25.624;2023-04-07T03:04:36;4.30;99.90
63802;DHT22;49949;43.060;25.624;2023-04-07T03:07:02;4.30;99.90
63802;DHT22;49949;43.060;25.624;2023-04-07T03:09:28;4.30;99.90
63802;DHT22;49949;43.060;25.624;2023-04-07T03:11:53;4.30;99.90
63802;DHT22;49949;43.060;25.624;2023-04-07T03:14:19;4.20;99.90
63802;DHT22;49949;43.060;25.624;2023-04-07T03:16:45;4.20;99.90
63802;DHT22;49949;43.060;25.624;2023-04-07T03:19:10;4.20;99.90
63802;DHT22;49949;43.060;25.624;2023-04-07T03:21:39;4.20;99.90
63802;DHT22;49949;43.060;25.624;2023-04-07T03:24:06;4.30;99.90
63802;DHT22;49949;43.060;25.624;2023-04-07T03:26:31;4.20;99.90
63802;DHT22;49949;43.060;25.624;2023-04-07T03:28:57;4.20;99.90
63802;DHT22;49949;43.060;25.624;2023-04-07T03:31:23;4.20;99.90
63802;DHT22;49949;43.060;25.624;2023-04-07T03:33:49;4.20;99.90
63802;DHT22;49949;43.060;25.624;2023-04-07T03:36:15;4.10;99.90
63802;DHT22;49949;43.060;25.624;2023-04-07T03:38:42;4.10;99.90
63802;DHT22;49949;43.060;25.624;2023-04-07T03:41:08;4.00;99.90
63802;DHT22;49949;43.060;25.624;2023-04-07T03:43:33;3.90;99.90
63802;DHT22;49949;43.060;25.624;2023-04-07T03:45:59;3.90;99.90
63802;DHT22;49949;43.060;25.624;2023-04-07T03:48:25;3.80;99.90
63802;DHT22;49949;43.060;25.624;2023-04-07T03:50:51;3.70;99.90
63802;DHT22;49949;43.060;25.624;2023-04-07T03:53:17;3.70;99.90
63802;DHT22;49949;43.060;25.624;2023-04-07T03:55:44;3.70;99.90
63802;DHT22;49949;43.060;25.624;2023-04-07T03:58:10;3.70;99.90
63802;DHT22;49949;43.060;25.624;2023-04-07T04:00:35;3.60;99.90
63802;DHT22;49949;43.060;25.624;2023-04-07T04:03:01;3.60;99.90
63802;DHT22;49949;43.060;25.624;2023-04-07T04:05:27;3.60;99.90
63802;DHT22;49949;43.060;25.624;2023-04-07T04:07:53;3.60;99.90
63802;DHT22;49949;43.060;25.624;2023-04-07T04:10:19;3.60;99.90
63802;DHT22;49949;43.060;25.624;2023-04-07T04:12:46;3.50;99.90
63802;DHT22;49949;43.060;25.624;2023-04-07T04:15:12;3.60;99.90
63802;DHT22;49949;43.060;25.624;2023-04-07T04:17:38;3.60;99.90
63802;DHT22;49949;43.060;25.624;2023-04-07T04:20:05;3.60;99.90
63802;DHT22;49949;43.060;25.624;2023-04-07T04:22:31;3.60;99.90
63802;DHT22;49949;43.060;25.624;2023-04-07T04:24:57;3.60;99.90
63802;DHT22;49949;43.060;25.624;2023-04-07T04:27:23;3.60;99.90
63802;DHT22;49949;43.060;25.624;2023-04-07T04:29:48;3.70;99.90
63802;DHT22;49949;43.060;25.624;2023-04-07T04:32:14;3.80;99.90
63802;DHT22;49949;43.060;25.624;2023-04-07T04:34:42;3.80;99.90
63802;DHT22;49949;43.060;25.624;2023-04-07T04:37:08;3.90;99.90
63802;DHT22;49949;43.060;25.624;2023-04-07T04:39:33;4.00;99.90
63802;DHT22;49949;43.060;25.624;2023-04-07T04:41:59;4.00;99.90
63802;DHT22;49949;43.060;25.624;2023-04-07T04:44:25;4.10;99.90
63802;DHT22;49949;43.060;25.624;2023-04-07T04:46:51;4.20;99.90
63802;DHT22;49949;43.060;25.624;2023-04-07T04:49:17;4.30;99.90
63802;DHT22;49949;43.060;25.624;2023-04-07T04:51:44;4.40;99.90
63802;DHT22;49949;43.060;25.624;2023-04-07T04:54:10;4.50;99.90
63802;DHT22;49949;43.060;25.624;2023-04-07T04:56:35;4.70;99.90
63802;DHT22;49949;43.060;25.624;2023-04-07T04:59:02;4.80;99.90
63802;DHT22;49949;43.060;25.624;2023-04-07T05:01:28;4.90;99.90
63802;DHT22;49949;43.060;25.624;2023-04-07T05:03:54;5.10;99.90
63802;DHT22;49949;43.060;25.624;2023-04-07T05:06:19;5.20;99.90
63802;DHT22;49949;43.060;25.624;2023-04-07T05:08:45;5.40;99.90
63802;DHT22;49949;43.060;25.624;2023-04-07T05:11:11;5.60;99.90
63802;DHT22;49949;43.060;25.624;2023-04-07T05:13:37;5.80;99.90
63802;DHT22;49949;43.060;25.624;2023-04-07T05:16:03;6.00;99.90
63802;DHT22;49949;43.060;25.624;2023-04-07T05:18:29;6.20;99.90
63802;DHT22;49949;43.060;25.624;2023-04-07T05:20:55;6.40;99.90
63802;DHT22;49949;43.060;25.624;2023-04-07T05:23:20;6.50;99.90
63802;DHT22;49949;43.060;25.624;2023-04-07T05:25:46;6.50;99.90
63802;DHT22;49949;43.060;25.624;2023-04-07T05:28:12;6.60;99.90
63802;DHT22;49949;43.060;25.624;2023-04-07T05:30:37;6.70;99.90
63802;DHT22;49949;43.060;25.624;2023-04-07T05:33:03;6.80;99.90
63802;DHT22;49949;43.060;25.624;2023-04-07T05:35:29;6.90;99.90
63802;DHT22;49949;43.060;25.624;2023-04-07T05:37:54;7.00;99.90
63802;DHT22;49949;43.060;25.624;2023-04-07T05:40:20;7.00;99.90
63802;DHT22;49949;43.060;25.624;2023-04-07T05:42:46;7.10;99.90
63802;DHT22;49949;43.060;25.624;2023-04-07T05:45:12;7.10;99.90
63802;DHT22;49949;43.060;25.624;2023-04-07T05:47:37;7.10;99.90
63802;DHT22;49949;43.060;25.624;2023-04-07T05:50:03;7.10;99.90
63802;DHT22;49949;43.060;25.624;2023-04-07T05:52:29;7.20;99.90
63802;DHT22;49949;43.060;25.624;2023-04-07T05:54:55;7.10;99.90
63802;DHT22;49949;43.060;25.624;2023-04-07T05:57:21;7.20;99.90
63802;DHT22;49949;43.060;25.624;2023-04-07T05:59:47;7.20;99.90
63802;DHT22;49949;43.060;25.624;2023-04-07T06:02:13;7.30;99.90
63802;DHT22;49949;43.060;25.624;2023-04-07T06:04:38;7.30;99.90
63802;DHT22;49949;43.060;25.624;2023-04-07T06:07:04;7.30;99.90
63802;DHT22;49949;43.060;25.624;2023-04-07T06:09:30;7.30;99.90
63802;DHT22;49949;43.060;25.624;2023-04-07T06:11:56;7.30;99.90
63802;DHT22;49949;43.060;25.624;2023-04-07T06:14:22;7.30;99.90
63802;DHT22;49949;43.060;25.624;2023-04-07T06:16:48;7.40;99.90
63802;DHT22;49949;43.060;25.624;2023-04-07T06:19:14;7.50;99.90
63802;DHT22;49949;43.060;25.624;2023-04-07T06:21:39;7.60;98.40
63802;DHT22;49949;43.060;25.624;2023-04-07T06:24:05;7.70;94.80
63802;DHT22;49949;43.060;25.624;2023-04-07T06:26:31;7.80;95.30
63802;DHT22;49949;43.060;25.624;2023-04-07T06:28:58;7.80;93.60
63802;DHT22;49949;43.060;25.624;2023-04-07T06:31:24;8.00;94.00
63802;DHT22;49949;43.060;25.624;2023-04-07T06:33:50;8.10;91.60
63802;DHT22;49949;43.060;25.624;2023-04-07T06:36:16;8.20;92.40
63802;DHT22;49949;43.060;25.624;2023-04-07T06:38:42;8.40;96.60
63802;DHT22;49949;43.060;25.624;2023-04-07T06:41:08;8.70;91.80
63802;DHT22;49949;43.060;25.624;2023-04-07T06:43:37;8.90;88.10
63802;DHT22;49949;43.060;25.624;2023-04-07T06:46:03;9.00;86.50
63802;DHT22;49949;43.060;25.624;2023-04-07T06:48:29;9.10;88.10
63802;DHT22;49949;43.060;25.624;2023-04-07T06:50:54;9.20;83.90
63802;DHT22;49949;43.060;25.624;2023-04-07T06:53:20;9.40;83.20
63802;DHT22;49949;43.060;25.624;2023-04-07T06:55:46;9.40;80.90
63802;DHT22;49949;43.060;25.624;2023-04-07T06:58:11;9.50;78.90
63802;DHT22;49949;43.060;25.624;2023-04-07T07:00:37;9.50;78.30
63802;DHT22;49949;43.060;25.624;2023-04-07T07:03:03;9.50;79.80
63802;DHT22;49949;43.060;25.624;2023-04-07T07:05:29;9.60;80.90
63802;DHT22;49949;43.060;25.624;2023-04-07T07:07:55;9.80;78.80
63802;DHT22;49949;43.060;25.624;2023-04-07T07:10:20;10.00;81.80
63802;DHT22;49949;43.060;25.624;2023-04-07T07:12:50;10.10;78.50
63802;DHT22;49949;43.060;25.624;2023-04-07T07:15:16;10.30;77.70
63802;DHT22;49949;43.060;25.624;2023-04-07T07:17:42;10.40;80.20
63802;DHT22;49949;43.060;25.624;2023-04-07T07:20:08;10.60;79.80
63802;DHT22;49949;43.060;25.624;2023-04-07T07:22:34;10.70;76.90
63802;DHT22;49949;43.060;25.624;2023-04-07T07:25:00;10.70;72.70
63802;DHT22;49949;43.060;25.624;2023-04-07T07:27:26;10.60;75.70
63802;DHT22;49949;43.060;25.624;2023-04-07T07:29:51;10.80;72.70
63802;DHT22;49949;43.060;25.624;2023-04-07T07:32:17;10.80;74.70
63802;DHT22;49949;43.060;25.624;2023-04-07T07:34:43;10.90;75.40
63802;DHT22;49949;43.060;25.624;2023-04-07T07:37:08;10.70;70.90
63802;DHT22;49949;43.060;25.624;2023-04-07T07:39:34;10.40;70.90
63802;DHT22;49949;43.060;25.624;2023-04-07T07:42:01;10.40;70.60
63802;DHT22;49949;43.060;25.624;2023-04-07T07:44:26;10.60;76.00
63802;DHT22;49949;43.060;25.624;2023-04-07T07:46:52;10.90;72.50
63802;DHT22;49949;43.060;25.624;2023-04-07T07:49:17;11.00;70.70
63802;DHT22;49949;43.060;25.624;2023-04-07T07:51:43;11.00;71.30
63802;DHT22;49949;43.060;25.624;2023-04-07T07:54:11;10.90;69.80
63802;DHT22;49949;43.060;25.624;2023-04-07T07:56:36;10.90;69.00
63802;DHT22;49949;43.060;25.624;2023-04-07T07:59:03;10.80;68.00
63802;DHT22;49949;43.060;25.624;2023-04-07T08:01:30;11.00;68.50
63802;DHT22;49949;43.060;25.624;2023-04-07T08:03:56;11.20;69.50
63802;DHT22;49949;43.060;25.624;2023-04-07T08:06:22;11.40;72.40
63802;DHT22;49949;43.060;25.624;2023-04-07T08:08:48;11.50;72.50
63802;DHT22;49949;43.060;25.624;2023-04-07T08:11:13;11.80;73.40
63802;DHT22;49949;43.060;25.624;2023-04-07T08:13:39;11.90;69.30
63802;DHT22;49949;43.060;25.624;2023-04-07T08:16:09;12.20;71.10
63802;DHT22;49949;43.060;25.624;2023-04-07T08:18:35;12.40;67.50
63802;DHT22;49949;43.060;25.624;2023-04-07T08:21:03;12.20;64.90
63802;DHT22;49949;43.060;25.624;2023-04-07T08:23:30;12.20;69.50
63802;DHT22;49949;43.060;25.624;2023-04-07T08:25:55;12.20;66.30
63802;DHT22;49949;43.060;25.624;2023-04-07T08:28:22;12.20;69.00
63802;DHT22;49949;43.060;25.624;2023-04-07T08:30:48;12.20;64.80
63802;DHT22;49949;43.060;25.624;2023-04-07T08:33:13;12.10;62.00
63802;DHT22;49949;43.060;25.624;2023-04-07T08:35:39;12.00;65.10
63802;DHT22;49949;43.060;25.624;2023-04-07T08:38:05;11.80;65.40
63802;DHT22;49949;43.060;25.624;2023-04-07T08:40:33;11.80;64.90
63802;DHT22;49949;43.060;25.624;2023-04-07T08:42:59;12.00;69.70
63802;DHT22;49949;43.060;25.624;2023-04-07T08:45:25;12.30;70.90
63802;DHT22;49949;43.060;25.624;2023-04-07T08:47:54;12.30;69.40
63802;DHT22;49949;43.060;25.624;2023-04-07T08:50:25;12.30;63.20
63802;DHT22;49949;43.060;25.624;2023-04-07T08:52:56;12.90;68.80
63802;DHT22;49949;43.060;25.624;2023-04-07T08:55:25;13.50;65.40
63802;DHT22;49949;43.060;25.624;2023-04-07T08:57:52;13.80;62.70
63802;DHT22;49949;43.060;25.624;2023-04-07T09:00:18;13.90;63.70
63802;DHT22;49949;43.060;25.624;2023-04-07T09:02:43;13.60;67.80
63802;DHT22;49949;43.060;25.624;2023-04-07T09:05:10;13.40;70.20
63802;DHT22;49949;43.060;25.624;2023-04-07T09:07:38;13.30;70.40
63802;DHT22;49949;43.060;25.624;2023-04-07T09:10:05;12.90;67.80
63802;DHT22;49949;43.060;25.624;2023-04-07T09:12:32;12.50;69.00
63802;DHT22;49949;43.060;25.624;2023-04-07T09:14:58;11.90;69.70
63802;DHT22;49949;43.060;25.624;2023-04-07T09:17:25;11.90;70.10
63802;DHT22;49949;43.060;25.624;2023-04-07T09:19:54;11.60;73.00
63802;DHT22;49949;43.060;25.624;2023-04-07T09:22:40;12.00;78.30
63802;DHT22;49949;43.060;25.624;2023-04-07T09:27:58;12.00;73.50
63802;DHT22;49949;43.060;25.624;2023-04-07T09:30:25;11.90;71.80
63802;DHT22;49949;43.060;25.624;2023-04-07T09:32:51;12.00;72.30
63802;DHT22;49949;43.060;25.624;2023-04-07T09:35:17;12.40;72.70
63802;DHT22;49949;43.060;25.624;2023-04-07T09:37:43;12.50;70.10
63802;DHT22;49949;43.060;25.624;2023-04-07T09:40:09;12.40;71.30
63802;DHT22;49949;43.060;25.624;2023-04-07T09:42:43;12.70;71.20
63802;DHT22;49949;43.060;25.624;2023-04-07T09:45:10;12.80;69.80
63802;DHT22;49949;43.060;25.624;2023-04-07T09:47:36;12.30;70.20
63802;DHT22;49949;43.060;25.624;2023-04-07T09:50:02;12.00;71.50
63802;DHT22;49949;43.060;25.624;2023-04-07T09:52:50;12.00;70.00
63802;DHT22;49949;43.060;25.624;2023-04-07T09:55:21;11.70;70.90
63802;DHT22;49949;43.060;25.624;2023-04-07T09:57:51;12.00;72.90
63802;DHT22;49949;43.060;25.624;2023-04-07T10:00:17;12.30;70.40
63802;DHT22;49949;43.060;25.624;2023-04-07T10:02:43;12.50;70.40
63802;DHT22;49949;43.060;25.624;2023-04-07T10:05:10;12.80;69.20
63802;DHT22;49949;43.060;25.624;2023-04-07T10:07:36;12.90;70.70
63802;DHT22;49949;43.060;25.624;2023-04-07T10:10:03;13.40;69.50
63802;DHT22;49949;43.060;25.624;2023-04-07T10:12:30;13.20;67.20
63802;DHT22;49949;43.060;25.624;2023-04-07T10:14:57;13.10;67.90
63802;DHT22;49949;43.060;25.624;2023-04-07T10:17:25;12.80;71.30
63802;DHT22;49949;43.060;25.624;2023-04-07T10:19:54;13.00;71.70
63802;DHT22;49949;43.060;25.624;2023-04-07T10:22:23;13.10;68.90
63802;DHT22;49949;43.060;25.624;2023-04-07T10:25:03;13.00;66.80
63802;DHT22;49949;43.060;25.624;2023-04-07T10:27:47;12.80;68.30
63802;DHT22;49949;43.060;25.624;2023-04-07T10:30:30;12.40;69.70
63802;DHT22;49949;43.060;25.624;2023-04-07T10:32:57;12.30;69.50
63802;DHT22;49949;43.060;25.624;2023-04-07T10:35:23;12.50;73.60
63802;DHT22;49949;43.060;25.624;2023-04-07T10:40:38;12.70;70.30
63802;DHT22;49949;43.060;25.624;2023-04-07T10:43:05;12.70;71.60
63802;DHT22;49949;43.060;25.624;2023-04-07T10:48:16;12.60;70.00
63802;DHT22;49949;43.060;25.624;2023-04-07T10:50:44;12.60;70.90
63802;DHT22;49949;43.060;25.624;2023-04-07T10:53:16;12.70;72.70
63802;DHT22;49949;43.060;25.624;2023-04-07T10:55:45;12.70;69.30
63802;DHT22;49949;43.060;25.624;2023-04-07T11:03:33;12.40;68.30
63802;DHT22;49949;43.060;25.624;2023-04-07T11:06:07;12.10;69.90
63802;DHT22;49949;43.060;25.624;2023-04-07T11:08:37;12.00;71.30
63802;DHT22;49949;43.060;25.624;2023-04-07T11:11:04;12.00;71.40
63802;DHT22;49949;43.060;25.624;2023-04-07T11:13:40;12.10;71.70
63802;DHT22;49949;43.060;25.624;2023-04-07T11:16:09;12.00;70.60
63802;DHT22;49949;43.060;25.624;2023-04-07T11:18:36;12.30;71.00
63802;DHT22;49949;43.060;25.624;2023-04-07T11:21:03;12.30;70.60
63802;DHT22;49949;43.060;25.624;2023-04-07T11:23:41;12.40;69.90
63802;DHT22;49949;43.060;25.624;2023-04-07T11:26:08;12.50;72.50
63802;DHT22;49949;43.060;25.624;2023-04-07T11:28:44;12.80;71.90
63802;DHT22;49949;43.060;25.624;2023-04-07T11:31:10;13.00;70.20
63802;DHT22;49949;43.060;25.624;2023-04-07T11:33:37;13.00;69.40
63802;DHT22;49949;43.060;25.624;2023-04-07T11:36:05;13.00;68.40
63802;DHT22;49949;43.060;25.624;2023-04-07T11:38:36;12.70;67.20
63802;DHT22;49949;43.060;25.624;2023-04-07T11:41:12;12.70;71.60
63802;DHT22;49949;43.060;25.624;2023-04-07T11:43:38;12.90;70.90
63802;DHT22;49949;43.060;25.624;2023-04-07T11:46:17;13.20;71.20
63802;DHT22;49949;43.060;25.624;2023-04-07T11:48:44;13.40;69.10
63802;DHT22;49949;43.060;25.624;2023-04-07T11:51:20;13.10;67.60
63802;DHT22;49949;43.060;25.624;2023-04-07T11:53:54;12.50;69.00
63802;DHT22;49949;43.060;25.624;2023-04-07T11:56:20;12.60;70.50
63802;DHT22;49949;43.060;25.624;2023-04-07T11:58:54;12.70;70.90
63802;DHT22;49949;43.060;25.624;2023-04-07T12:01:20;12.60;69.70
63802;DHT22;49949;43.060;25.624;2023-04-07T12:04:02;12.60;71.20
63802;DHT22;49949;43.060;25.624;2023-04-07T12:06:35;12.40;72.60
63802;DHT22;49949;43.060;25.624;2023-04-07T12:09:07;12.20;70.90
63802;DHT22;49949;43.060;25.624;2023-04-07T12:11:34;12.30;73.80
63802;DHT22;49949;43.060;25.624;2023-04-07T12:14:01;12.50;74.90
63802;DHT22;49949;43.060;25.624;2023-04-07T12:16:29;12.60;71.70
63802;DHT22;49949;43.060;25.624;2023-04-07T12:18:55;12.50;70.20
63802;DHT22;49949;43.060;25.624;2023-04-07T12:21:22;12.50;72.90
63802;DHT22;49949;43.060;25.624;2023-04-07T12:23:50;12.50;71.10
63802;DHT22;49949;43.060;25.624;2023-04-07T12:26:16;12.60;72.30
63802;DHT22;49949;43.060;25.624;2023-04-07T12:28:42;12.70;72.10
63802;DHT22;49949;43.060;25.624;2023-04-07T12:31:07;12.80;72.50
63802;DHT22;49949;43.060;25.624;2023-04-07T12:33:33;12.60;69.90
63802;DHT22;49949;43.060;25.624;2023-04-07T12:35:58;12.50;70.90
63802;DHT22;49949;43.060;25.624;2023-04-07T12:38:25;12.50;74.10
63802;DHT22;49949;43.060;25.624;2023-04-07T12:40:51;12.50;73.70
63802;DHT22;49949;43.060;25.624;2023-04-07T12:43:17;12.50;73.80
63802;DHT22;49949;43.060;25.624;2023-04-07T12:45:43;12.40;73.30
63802;DHT22;49949;43.060;25.624;2023-04-07T12:48:08;12.50;73.00
63802;DHT22;49949;43.060;25.624;2023-04-07T12:50:35;12.30;73.70
63802;DHT22;49949;43.060;25.624;2023-04-07T12:53:01;12.20;73.00
63802;DHT22;49949;43.060;25.624;2023-04-07T12:55:31;12.30;73.90
63802;DHT22;49949;43.060;25.624;2023-04-07T12:57:58;12.40;71.20
63802;DHT22;49949;43.060;25.624;2023-04-07T13:00:24;12.30;73.70
63802;DHT22;49949;43.060;25.624;2023-04-07T13:02:50;12.50;75.30
63802;DHT22;49949;43.060;25.624;2023-04-07T13:05:16;12.40;73.70
63802;DHT22;49949;43.060;25.624;2023-04-07T13:07:43;12.50;73.00
63802;DHT22;49949;43.060;25.624;2023-04-07T13:10:09;12.30;73.70
63802;DHT22;49949;43.060;25.624;2023-04-07T13:12:35;12.40;73.30
63802;DHT22;49949;43.060;25.624;2023-04-07T13:15:02;12.30;72.80
63802;DHT22;49949;43.060;25.624;2023-04-07T13:17:28;12.10;73.80
63802;DHT22;49949;43.060;25.624;2023-04-07T13:19:54;12.10;74.70
63802;DHT22;49949;43.060;25.624;2023-04-07T13:22:20;12.10;74.60
63802;DHT22;49949;43.060;25.624;2023-04-07T13:24:46;11.80;73.00
63802;DHT22;49949;43.060;25.624;2023-04-07T13:27:12;11.70;73.00
63802;DHT22;49949;43.060;25.624;2023-04-07T13:29:37;11.60;73.70
63802;DHT22;49949;43.060;25.624;2023-04-07T13:32:08;11.60;75.80
63802;DHT22;49949;43.060;25.624;2023-04-07T13:34:35;11.50;76.90
63802;DHT22;49949;43.060;25.624;2023-04-07T13:37:04;11.50;77.10
63802;DHT22;49949;43.060;25.624;2023-04-07T13:39:30;11.50;75.70
63802;DHT22;49949;43.060;25.624;2023-04-07T13:41:57;11.30;76.90
63802;DHT22;49949;43.060;25.624;2023-04-07T13:44:26;11.30;78.50
63802;DHT22;49949;43.060;25.624;2023-04-07T13:46:53;11.30;77.20
63802;DHT22;49949;43.060;25.624;2023-04-07T13:49:19;11.30;75.80
63802;DHT22;49949;43.060;25.624;2023-04-07T13:51:46;11.30;77.00
63802;DHT22;49949;43.060;25.624;2023-04-07T13:54:11;11.30;77.90
63802;DHT22;49949;43.060;25.624;2023-04-07T13:56:37;11.40;76.90
63802;DHT22;49949;43.060;25.624;2023-04-07T13:59:06;11.40;76.90
63802;DHT22;49949;43.060;25.624;2023-04-07T14:01:33;11.30;76.70
63802;DHT22;49949;43.060;25.624;2023-04-07T14:04:00;11.30;76.30
63802;DHT22;49949;43.060;25.624;2023-04-07T14:06:25;11.20;76.50
63802;DHT22;49949;43.060;25.624;2023-04-07T14:08:52;11.20;77.70
63802;DHT22;49949;43.060;25.624;2023-04-07T14:11:18;11.10;77.40
63802;DHT22;49949;43.060;25.624;2023-04-07T14:13:44;10.90;78.10
63802;DHT22;49949;43.060;25.624;2023-04-07T14:16:10;10.90;78.80
63802;DHT22;49949;43.060;25.624;2023-04-07T14:18:36;11.00;80.10
63802;DHT22;49949;43.060;25.624;2023-04-07T14:21:03;11.00;80.90
63802;DHT22;49949;43.060;25.624;2023-04-07T14:23:29;11.10;79.80
63802;DHT22;49949;43.060;25.624;2023-04-07T14:25:56;11.00;77.30
63802;DHT22;49949;43.060;25.624;2023-04-07T14:28:22;11.00;78.80
63802;DHT22;49949;43.060;25.624;2023-04-07T14:30:48;11.10;79.30
63802;DHT22;49949;43.060;25.624;2023-04-07T14:33:14;11.00;77.70
63802;DHT22;49949;43.060;25.624;2023-04-07T14:35:42;10.90;79.00
63802;DHT22;49949;43.060;25.624;2023-04-07T14:38:08;10.90;78.50
63802;DHT22;49949;43.060;25.624;2023-04-07T14:40:33;11.00;80.60
63802;DHT22;49949;43.060;25.624;2023-04-07T14:42:59;10.90;80.00
63802;DHT22;49949;43.060;25.624;2023-04-07T14:45:25;11.00;79.50
63802;DHT22;49949;43.060;25.624;2023-04-07T14:47:51;11.00;81.40
63802;DHT22;49949;43.060;25.624;2023-04-07T14:50:17;11.10;81.80
63802;DHT22;49949;43.060;25.624;2023-04-07T14:52:43;11.20;81.60
63802;DHT22;49949;43.060;25.624;2023-04-07T14:55:09;11.20;78.10
63802;DHT22;49949;43.060;25.624;2023-04-07T14:57:35;11.00;79.70
63802;DHT22;49949;43.060;25.624;2023-04-07T15:00:02;11.00;79.10
63802;DHT22;49949;43.060;25.624;2023-04-07T15:02:28;11.10;82.30
63802;DHT22;49949;43.060;25.624;2023-04-07T15:04:56;11.10;79.90
63802;DHT22;49949;43.060;25.624;2023-04-07T15:07:21;10.90;78.30
63802;DHT22;49949;43.060;25.624;2023-04-07T15:09:47;10.80;80.20
63802;DHT22;49949;43.060;25.624;2023-04-07T15:12:13;10.80;80.80
63802;DHT22;49949;43.060;25.624;2023-04-07T15:14:39;10.70;79.90
63802;DHT22;49949;43.060;25.624;2023-04-07T15:17:04;10.70;80.20
63802;DHT22;49949;43.060;25.624;2023-04-07T15:19:30;10.80;80.90
63802;DHT22;49949;43.060;25.624;2023-04-07T15:21:56;10.80;81.10
63802;DHT22;49949;43.060;25.624;2023-04-07T15:24:21;10.80;82.30
63802;DHT22;49949;43.060;25.624;2023-04-07T15:26:48;10.90;81.20
63802;DHT22;49949;43.060;25.624;2023-04-07T15:29:14;10.80;81.10
63802;DHT22;49949;43.060;25.624;2023-04-07T15:31:39;10.70;80.80
63802;DHT22;49949;43.060;25.624;2023-04-07T15:34:05;10.70;83.00
63802;DHT22;49949;43.060;25.624;2023-04-07T15:36:31;10.50;81.70
63802;DHT22;49949;43.060;25.624;2023-04-07T15:39:00;10.60;83.70